sensor_id;sensor_type;location;lat;lon;timestamp;pressure;altitude;pressure_sealevel;temperature;humidity
41898;BME280;27576;53.366;-1.498;2022-12-15T00:02:38;99596.97;;;-4.38;100.00
41898;BME280;27576;53.366;-1.498;2022-12-15T00:05:22;99612.16;;;-4.23;100.00
41898;BME280;27576;53.366;-1.498;2022-12-15T00:08:07;99633.66;;;-4.16;100.00
41898;BME280;27576;53.366;-1.498;2022-12-15T00:10:53;99643.06;;;-4.14;100.00
41898;BME280;27576;53.366;-1.498;2022-12-15T00:13:37;99648.84;;;-4.16;100.00
41898;BME280;27576;53.366;-1.498;2022-12-15T00:16:21;99613.63;;;-4.41;100.00
41898;BME280;27576;53.366;-1.498;2022-12-15T00:19:04;99590.13;;;-4.54;100.00
41898;BME280;27576;53.366;-1.498;2022-12-15T00:21:48;99647.78;;;-4.20;100.00
41898;BME280;27576;53.366;-1.498;2022-12-15T00:24:32;99633.81;;;-4.28;100.00
41898;BME280;27576;53.366;-1.498;2022-12-15T00:27:16;99581.00;;;-4.52;100.00
41898;BME280;27576;53.366;-1.498;2022-12-15T00:30:00;99585.47;;;-4.48;100.00
41898;BME280;27576;53.366;-1.498;2022-12-15T00:32:44;99638.00;;;-4.14;100.00
41898;BME280;27576;53.366;-1.498;2022-12-15T00:35:28;99623.84;;;-4.25;100.00
41898;BME280;27576;53.366;-1.498;2022-12-15T00:38:13;99607.53;;;-4.30;100.00
41898;BME280;27576;53.366;-1.498;2022-12-15T00:40:59;99591.72;;;-4.41;100.00
41898;BME280;27576;53.366;-1.498;2022-12-15T00:43:28;99630.81;;;-4.21;100.00
41898;BME280;27576;53.366;-1.498;2022-12-15T00:45:54;99599.91;;;-4.45;100.00
41898;BME280;27576;53.366;-1.498;2022-12-15T00:48:40;99587.69;;;-4.52;100.00
41898;BME280;27576;53.366;-1.498;2022-12-15T00:51:06;99524.13;;;-5.01;100.00
41898;BME280;27576;53.366;-1.498;2022-12-15T00:53:31;99631.97;;;-4.31;100.00
41898;BME280;27576;53.366;-1.498;2022-12-15T00:56:16;99636.16;;;-4.31;100.00
41898;BME280;27576;53.366;-1.498;2022-12-15T00:58:59;99606.97;;;-4.54;100.00
41898;BME280;27576;53.366;-1.498;2022-12-15T01:01:43;99602.84;;;-4.52;100.00
41898;BME280;27576;53.366;-1.498;2022-12-15T01:04:28;99641.63;;;-4.38;100.00
41898;BME280;27576;53.366;-1.498;2022-12-15T01:07:15;99596.22;;;-4.65;100.00
41898;BME280;27576;53.366;-1.498;2022-12-15T01:09:59;99595.34;;;-4.65;100.00
41898;BME280;27576;53.366;-1.498;2022-12-15T01:12:44;99634.44;;;-4.46;100.00
41898;BME280;27576;53.366;-1.498;2022-12-15T01:15:29;99627.13;;;-4.56;100.00
41898;BME280;27576;53.366;-1.498;2022-12-15T01:18:13;99606.84;;;-4.71;100.00
41898;BME280;27576;53.366;-1.498;2022-12-15T01:20:58;99638.25;;;-4.52;100.00
41898;BME280;27576;53.366;-1.498;2022-12-15T01:23:25;99606.25;;;-4.80;100.00
41898;BME280;27576;53.366;-1.498;2022-12-15T01:25:51;99625.16;;;-4.60;100.00
41898;BME280;27576;53.366;-1.498;2022-12-15T01:28:21;99577.84;;;-4.90;100.00
41898;BME280;27576;53.366;-1.498;2022-12-15T01:30:48;99582.38;;;-4.85;100.00
41898;BME280;27576;53.366;-1.498;2022-12-15T01:33:15;99584.41;;;-4.79;100.00
41898;BME280;27576;53.366;-1.498;2022-12-15T01:35:40;99629.03;;;-4.52;100.00
41898;BME280;27576;53.366;-1.498;2022-12-15T01:38:06;99605.72;;;-4.61;100.00
41898;BME280;27576;53.366;-1.498;2022-12-15T01:40:31;99589.41;;;-4.66;100.00
41898;BME280;27576;53.366;-1.498;2022-12-15T01:43:26;99621.72;;;-4.47;100.00
41898;BME280;27576;53.366;-1.498;2022-12-15T01:45:56;99625.19;;;-4.45;100.00
41898;BME280;27576;53.366;-1.498;2022-12-15T01:48:26;99591.16;;;-4.65;100.00
41898;BME280;27576;53.366;-1.498;2022-12-15T01:50:59;99625.47;;;-4.40;100.00
41898;BME280;27576;53.366;-1.498;2022-12-15T01:53:31;99587.94;;;-4.62;100.00
41898;BME280;27576;53.366;-1.498;2022-12-15T01:55:58;99615.09;;;-4.45;100.00
41898;BME280;27576;53.366;-1.498;2022-12-15T01:58:23;99623.84;;;-4.40;100.00
41898;BME280;27576;53.366;-1.498;2022-12-15T02:00:49;99588.03;;;-4.61;100.00
41898;BME280;27576;53.366;-1.498;2022-12-15T02:03:14;99608.09;;;-4.49;100.00
41898;BME280;27576;53.366;-1.498;2022-12-15T02:05:40;99540.88;;;-4.88;100.00
41898;BME280;27576;53.366;-1.498;2022-12-15T02:08:06;99598.50;;;-4.55;100.00
41898;BME280;27576;53.366;-1.498;2022-12-15T02:13:35;99608.97;;;-4.49;100.00
41898;BME280;27576;53.366;-1.498;2022-12-15T02:16:20;99604.03;;;-4.47;100.00
41898;BME280;27576;53.366;-1.498;2022-12-15T02:18:58;99596.31;;;-4.49;100.00
41898;BME280;27576;53.366;-1.498;2022-12-15T02:21:40;99582.56;;;-4.54;100.00
41898;BME280;27576;53.366;-1.498;2022-12-15T02:32:08;99610.00;;;-4.32;100.00
41898;BME280;27576;53.366;-1.498;2022-12-15T02:37:18;99595.56;;;-4.48;100.00
41898;BME280;27576;53.366;-1.498;2022-12-15T02:39:46;99592.84;;;-4.51;100.00
41898;BME280;27576;53.366;-1.498;2022-12-15T02:42:13;99603.03;;;-4.49;100.00
41898;BME280;27576;53.366;-1.498;2022-12-15T02:44:47;99608.28;;;-4.46;100.00
41898;BME280;27576;53.366;-1.498;2022-12-15T02:47:38;99622.94;;;-4.40;100.00
41898;BME280;27576;53.366;-1.498;2022-12-15T02:59:13;99549.06;;;-4.93;100.00
41898;BME280;27576;53.366;-1.498;2022-12-15T03:04:19;99626.19;;;-4.43;100.00
41898;BME280;27576;53.366;-1.498;2022-12-15T03:06:44;99515.69;;;-5.02;100.00
41898;BME280;27576;53.366;-1.498;2022-12-15T03:09:10;99627.91;;;-4.42;100.00
41898;BME280;27576;53.366;-1.498;2022-12-15T03:11:36;99593.06;;;-4.61;100.00
41898;BME280;27576;53.366;-1.498;2022-12-15T03:14:02;99583.22;;;-4.71;100.00
41898;BME280;27576;53.366;-1.498;2022-12-15T03:16:27;99585.03;;;-4.69;100.00
41898;BME280;27576;53.366;-1.498;2022-12-15T03:18:53;99618.31;;;-4.48;100.00
41898;BME280;27576;53.366;-1.498;2022-12-15T03:21:18;99611.16;;;-4.55;100.00
41898;BME280;27576;53.366;-1.498;2022-12-15T03:23:43;99608.44;;;-4.58;100.00
41898;BME280;27576;53.366;-1.498;2022-12-15T03:26:09;99573.78;;;-4.74;100.00
41898;BME280;27576;53.366;-1.498;2022-12-15T03:28:34;99579.78;;;-4.72;100.00
41898;BME280;27576;53.366;-1.498;2022-12-15T03:31:00;99613.88;;;-4.52;100.00
41898;BME280;27576;53.366;-1.498;2022-12-15T03:33:25;99598.94;;;-4.62;100.00
41898;BME280;27576;53.366;-1.498;2022-12-15T03:35:50;99580.59;;;-4.73;100.00
41898;BME280;27576;53.366;-1.498;2022-12-15T03:38:16;99578.25;;;-4.70;100.00
41898;BME280;27576;53.366;-1.498;2022-12-15T03:40:42;99577.19;;;-4.73;100.00
41898;BME280;27576;53.366;-1.498;2022-12-15T03:43:07;99617.25;;;-4.51;100.00
41898;BME280;27576;53.366;-1.498;2022-12-15T03:45:32;99564.00;;;-4.82;100.00
41898;BME280;27576;53.366;-1.498;2022-12-15T03:47:58;99594.53;;;-4.64;100.00
41898;BME280;27576;53.366;-1.498;2022-12-15T03:50:25;99620.06;;;-4.47;100.00
41898;BME280;27576;53.366;-1.498;2022-12-15T03:52:53;99567.59;;;-4.79;100.00
41898;BME280;27576;53.366;-1.498;2022-12-15T03:55:20;99583.56;;;-4.65;100.00
41898;BME280;27576;53.366;-1.498;2022-12-15T03:57:46;99582.03;;;-4.63;100.00
41898;BME280;27576;53.366;-1.498;2022-12-15T04:00:12;99583.75;;;-4.62;100.00
41898;BME280;27576;53.366;-1.498;2022-12-15T04:02:42;99596.06;;;-4.53;100.00
41898;BME280;27576;53.366;-1.498;2022-12-15T04:05:17;99619.81;;;-4.36;100.00
41898;BME280;27576;53.366;-1.498;2022-12-15T04:07:42;99614.06;;;-4.34;100.00
41898;BME280;27576;53.366;-1.498;2022-12-15T04:10:08;99596.63;;;-4.44;100.00
41898;BME280;27576;53.366;-1.498;2022-12-15T04:12:34;99622.78;;;-4.29;100.00
41898;BME280;27576;53.366;-1.498;2022-12-15T04:14:59;99595.84;;;-4.43;100.00
41898;BME280;27576;53.366;-1.498;2022-12-15T04:17:24;99605.63;;;-4.34;100.00
41898;BME280;27576;53.366;-1.498;2022-12-15T04:19:50;99583.88;;;-4.46;100.00
41898;BME280;27576;53.366;-1.498;2022-12-15T04:22:44;99624.22;;;-4.19;100.00
41898;BME280;27576;53.366;-1.498;2022-12-15T04:25:16;99613.97;;;-4.21;100.00
41898;BME280;27576;53.366;-1.498;2022-12-15T04:28:00;99617.03;;;-4.26;100.00
41898;BME280;27576;53.366;-1.498;2022-12-15T04:30:48;99621.44;;;-4.24;100.00
41898;BME280;27576;53.366;-1.498;2022-12-15T04:33:33;99632.75;;;-4.17;100.00
41898;BME280;27576;53.366;-1.498;2022-12-15T04:36:17;99616.69;;;-4.17;100.00
41898;BME280;27576;53.366;-1.498;2022-12-15T04:39:04;99626.22;;;-4.13;100.00
41898;BME280;27576;53.366;-1.498;2022-12-15T04:41:49;99568.88;;;-4.42;100.00
41898;BME280;27576;53.366;-1.498;2022-12-15T04:44:34;99598.06;;;-4.20;100.00
41898;BME280;27576;53.366;-1.498;2022-12-15T04:47:18;99581.13;;;-4.35;100.00
41898;BME280;27576;53.366;-1.498;2022-12-15T04:50:03;99579.34;;;-4.36;100.00
41898;BME280;27576;53.366;-1.498;2022-12-15T04:52:50;99638.78;;;-4.15;100.00
41898;BME280;27576;53.366;-1.498;2022-12-15T04:55:35;99608.94;;;-4.35;100.00
41898;BME280;27576;53.366;-1.498;2022-12-15T04:58:19;99632.91;;;-4.29;100.00
41898;BME280;27576;53.366;-1.498;2022-12-15T05:01:03;99610.91;;;-4.45;100.00
41898;BME280;27576;53.366;-1.498;2022-12-15T05:03:47;99616.16;;;-4.41;100.00
41898;BME280;27576;53.366;-1.498;2022-12-15T05:06:31;99627.59;;;-4.33;100.00
41898;BME280;27576;53.366;-1.498;2022-12-15T05:09:15;99642.53;;;-4.23;100.00
41898;BME280;27576;53.366;-1.498;2022-12-15T05:11:59;99603.31;;;-4.45;100.00
41898;BME280;27576;53.366;-1.498;2022-12-15T05:14:43;99640.22;;;-4.33;100.00
41898;BME280;27576;53.366;-1.498;2022-12-15T05:17:28;99634.22;;;-4.35;100.00
41898;BME280;27576;53.366;-1.498;2022-12-15T05:20:12;99609.84;;;-4.48;100.00
41898;BME280;27576;53.366;-1.498;2022-12-15T05:22:56;99641.69;;;-4.37;100.00
41898;BME280;27576;53.366;-1.498;2022-12-15T05:25:41;99638.03;;;-4.42;100.00
41898;BME280;27576;53.366;-1.498;2022-12-15T05:28:25;99626.50;;;-4.52;100.00
41898;BME280;27576;53.366;-1.498;2022-12-15T05:31:09;99647.19;;;-4.44;100.00
41898;BME280;27576;53.366;-1.498;2022-12-15T05:33:54;99650.41;;;-4.47;100.00
41898;BME280;27576;53.366;-1.498;2022-12-15T05:36:20;99643.22;;;-4.54;100.00
41898;BME280;27576;53.366;-1.498;2022-12-15T05:38:49;99608.31;;;-4.74;100.00
41898;BME280;27576;53.366;-1.498;2022-12-15T05:41:15;99648.97;;;-4.56;100.00
41898;BME280;27576;53.366;-1.498;2022-12-15T05:43:41;99627.81;;;-4.72;100.00
41898;BME280;27576;53.366;-1.498;2022-12-15T05:46:06;99619.50;;;-4.84;100.00
41898;BME280;27576;53.366;-1.498;2022-12-15T05:48:31;99590.09;;;-4.97;100.00
41898;BME280;27576;53.366;-1.498;2022-12-15T05:51:02;99648.34;;;-4.67;100.00
41898;BME280;27576;53.366;-1.498;2022-12-15T05:53:27;99616.09;;;-4.84;100.00
41898;BME280;27576;53.366;-1.498;2022-12-15T05:56:00;99613.38;;;-4.87;100.00
41898;BME280;27576;53.366;-1.498;2022-12-15T05:58:25;99621.16;;;-4.84;100.00
41898;BME280;27576;53.366;-1.498;2022-12-15T06:00:50;99633.16;;;-4.67;100.00
41898;BME280;27576;53.366;-1.498;2022-12-15T06:03:16;99574.75;;;-5.00;100.00
41898;BME280;27576;53.366;-1.498;2022-12-15T06:05:41;99626.34;;;-4.68;100.00
41898;BME280;27576;53.366;-1.498;2022-12-15T06:08:06;99646.91;;;-4.49;100.00
41898;BME280;27576;53.366;-1.498;2022-12-15T06:10:31;99640.28;;;-4.47;100.00
41898;BME280;27576;53.366;-1.498;2022-12-15T06:12:57;99628.84;;;-4.55;100.00
41898;BME280;27576;53.366;-1.498;2022-12-15T06:15:22;99629.03;;;-4.52;100.00
41898;BME280;27576;53.366;-1.498;2022-12-15T06:17:47;99621.25;;;-4.55;100.00
41898;BME280;27576;53.366;-1.498;2022-12-15T06:20:13;99645.63;;;-4.42;100.00
41898;BME280;27576;53.366;-1.498;2022-12-15T06:22:38;99624.47;;;-4.57;100.00
41898;BME280;27576;53.366;-1.498;2022-12-15T06:25:04;99598.47;;;-4.70;100.00
41898;BME280;27576;53.366;-1.498;2022-12-15T06:27:30;99623.88;;;-4.53;100.00
41898;BME280;27576;53.366;-1.498;2022-12-15T06:29:55;99651.13;;;-4.34;100.00
41898;BME280;27576;53.366;-1.498;2022-12-15T06:32:21;99615.41;;;-4.54;100.00
41898;BME280;27576;53.366;-1.498;2022-12-15T06:34:47;99623.72;;;-4.41;100.00
41898;BME280;27576;53.366;-1.498;2022-12-15T06:37:12;99622.94;;;-4.40;100.00
41898;BME280;27576;53.366;-1.498;2022-12-15T06:39:38;99624.38;;;-4.31;100.00
41898;BME280;27576;53.366;-1.498;2022-12-15T06:42:03;99670.66;;;-4.04;100.00
41898;BME280;27576;53.366;-1.498;2022-12-15T06:44:29;99654.59;;;-4.04;100.00
41898;BME280;27576;53.366;-1.498;2022-12-15T06:46:54;99648.50;;;-4.08;100.00
41898;BME280;27576;53.366;-1.498;2022-12-15T06:49:19;99634.63;;;-4.00;100.00
41898;BME280;27576;53.366;-1.498;2022-12-15T06:51:49;99670.78;;;-3.73;100.00
41898;BME280;27576;53.366;-1.498;2022-12-15T06:54:14;99640.31;;;-3.89;100.00
41898;BME280;27576;53.366;-1.498;2022-12-15T06:56:39;99644.66;;;-3.86;100.00
41898;BME280;27576;53.366;-1.498;2022-12-15T06:59:06;99675.56;;;-3.62;100.00
41898;BME280;27576;53.366;-1.498;2022-12-15T07:01:32;99683.41;;;-3.58;100.00
41898;BME280;27576;53.366;-1.498;2022-12-15T07:03:58;99677.66;;;-3.55;100.00
41898;BME280;27576;53.366;-1.498;2022-12-15T07:06:25;99615.16;;;-3.86;100.00
41898;BME280;27576;53.366;-1.498;2022-12-15T07:08:53;99675.75;;;-3.44;100.00
41898;BME280;27576;53.366;-1.498;2022-12-15T07:11:21;99676.00;;;-3.40;100.00
41898;BME280;27576;53.366;-1.498;2022-12-15T07:13:51;99672.22;;;-3.47;100.00
41898;BME280;27576;53.366;-1.498;2022-12-15T07:16:17;99627.13;;;-3.68;100.00
41898;BME280;27576;53.366;-1.498;2022-12-15T07:18:42;99637.31;;;-3.67;100.00
41898;BME280;27576;53.366;-1.498;2022-12-15T07:21:09;99679.13;;;-3.44;100.00
41898;BME280;27576;53.366;-1.498;2022-12-15T07:23:35;99686.38;;;-3.35;100.00
41898;BME280;27576;53.366;-1.498;2022-12-15T07:26:03;99684.09;;;-3.31;100.00
41898;BME280;27576;53.366;-1.498;2022-12-15T07:28:29;99691.69;;;-3.31;100.00
41898;BME280;27576;53.366;-1.498;2022-12-15T07:30:54;99676.00;;;-3.40;100.00
41898;BME280;27576;53.366;-1.498;2022-12-15T07:33:20;99637.69;;;-3.61;100.00
41898;BME280;27576;53.366;-1.498;2022-12-15T07:35:53;99623.72;;;-3.69;100.00
41898;BME280;27576;53.366;-1.498;2022-12-15T07:38:18;99662.28;;;-3.43;100.00
41898;BME280;27576;53.366;-1.498;2022-12-15T07:40:43;99699.81;;;-3.22;100.00
41898;BME280;27576;53.366;-1.498;2022-12-15T07:43:09;99687.59;;;-3.29;100.00
41898;BME280;27576;53.366;-1.498;2022-12-15T07:45:35;99688.28;;;-3.31;100.00
41898;BME280;27576;53.366;-1.498;2022-12-15T07:48:00;99679.75;;;-3.33;100.00
41898;BME280;27576;53.366;-1.498;2022-12-15T07:50:26;99670.91;;;-3.40;100.00
41898;BME280;27576;53.366;-1.498;2022-12-15T07:52:53;99672.41;;;-3.43;100.00
41898;BME280;27576;53.366;-1.498;2022-12-15T07:55:19;99672.22;;;-3.47;100.00
41898;BME280;27576;53.366;-1.498;2022-12-15T07:57:46;99683.84;;;-3.35;100.00
41898;BME280;27576;53.366;-1.498;2022-12-15T08:00:12;99709.09;;;-3.22;100.00
41898;BME280;27576;53.366;-1.498;2022-12-15T08:02:39;99698.25;;;-3.34;100.00
41898;BME280;27576;53.366;-1.498;2022-12-15T08:05:06;99695.72;;;-3.34;100.00
41898;BME280;27576;53.366;-1.498;2022-12-15T08:07:31;99638.00;;;-3.70;100.00
41898;BME280;27576;53.366;-1.498;2022-12-15T08:09:57;99713.88;;;-3.27;100.00
41898;BME280;27576;53.366;-1.498;2022-12-15T08:12:22;99712.81;;;-3.30;100.00
41898;BME280;27576;53.366;-1.498;2022-12-15T08:14:47;99723.25;;;-3.26;100.00
41898;BME280;27576;53.366;-1.498;2022-12-15T08:17:12;99706.75;;;-3.34;100.00
41898;BME280;27576;53.366;-1.498;2022-12-15T08:19:38;99690.81;;;-3.46;100.00
41898;BME280;27576;53.366;-1.498;2022-12-15T08:22:03;99693.97;;;-3.50;100.00
41898;BME280;27576;53.366;-1.498;2022-12-15T08:24:28;99714.16;;;-3.37;100.00
41898;BME280;27576;53.366;-1.498;2022-12-15T08:26:54;99722.19;;;-3.29;100.00
41898;BME280;27576;53.366;-1.498;2022-12-15T08:29:19;99716.88;;;-3.34;100.00
41898;BME280;27576;53.366;-1.498;2022-12-15T08:31:45;99731.78;;;-3.24;100.00
41898;BME280;27576;53.366;-1.498;2022-12-15T08:34:10;99710.59;;;-3.40;100.00
41898;BME280;27576;53.366;-1.498;2022-12-15T08:36:36;99702.13;;;-3.41;100.00
41898;BME280;27576;53.366;-1.498;2022-12-15T08:39:02;99759.31;;;-3.15;100.00
41898;BME280;27576;53.366;-1.498;2022-12-15T08:41:30;99756.94;;;-3.12;100.00
41898;BME280;27576;53.366;-1.498;2022-12-15T08:43:56;99761.31;;;-3.09;100.00
41898;BME280;27576;53.366;-1.498;2022-12-15T08:46:25;99762.38;;;-3.06;100.00
41898;BME280;27576;53.366;-1.498;2022-12-15T08:48:51;99754.53;;;-3.10;100.00
41898;BME280;27576;53.366;-1.498;2022-12-15T08:51:18;99732.84;;;-3.20;100.00
41898;BME280;27576;53.366;-1.498;2022-12-15T08:53:44;99781.59;;;-2.94;100.00
41898;BME280;27576;53.366;-1.498;2022-12-15T08:56:12;99783.50;;;-2.90;100.00
41898;BME280;27576;53.366;-1.498;2022-12-15T08:58:38;99781.13;;;-2.87;100.00
41898;BME280;27576;53.366;-1.498;2022-12-15T09:01:18;99768.13;;;-2.93;100.00
41898;BME280;27576;53.366;-1.498;2022-12-15T09:03:44;99790.81;;;-2.80;100.00
41898;BME280;27576;53.366;-1.498;2022-12-15T09:06:13;99783.31;;;-2.79;100.00
41898;BME280;27576;53.366;-1.498;2022-12-15T09:08:39;99780.00;;;-2.78;100.00
41898;BME280;27576;53.366;-1.498;2022-12-15T09:11:04;99767.50;;;-2.89;100.00
41898;BME280;27576;53.366;-1.498;2022-12-15T09:13:30;99786.97;;;-2.74;100.00
41898;BME280;27576;53.366;-1.498;2022-12-15T09:16:00;99794.84;;;-2.69;100.00
41898;BME280;27576;53.366;-1.498;2022-12-15T09:18:26;99769.75;;;-2.79;100.00
41898;BME280;27576;53.366;-1.498;2022-12-15T09:20:52;99781.34;;;-2.68;100.00
41898;BME280;27576;53.366;-1.498;2022-12-15T09:23:18;99792.78;;;-2.60;100.00
41898;BME280;27576;53.366;-1.498;2022-12-15T09:25:44;99795.50;;;-2.57;100.00
41898;BME280;27576;53.366;-1.498;2022-12-15T09:28:11;99750.09;;;-2.83;100.00
41898;BME280;27576;53.366;-1.498;2022-12-15T09:30:36;99744.50;;;-2.78;100.00
41898;BME280;27576;53.366;-1.498;2022-12-15T09:33:01;99786.34;;;-2.55;100.00
41898;BME280;27576;53.366;-1.498;2022-12-15T09:35:28;99794.44;;;-2.45;100.00
41898;BME280;27576;53.366;-1.498;2022-12-15T09:37:55;99763.84;;;-2.63;100.00
41898;BME280;27576;53.366;-1.498;2022-12-15T09:40:20;99800.63;;;-2.40;100.00
41898;BME280;27576;53.366;-1.498;2022-12-15T09:42:51;99770.31;;;-2.54;100.00
41898;BME280;27576;53.366;-1.498;2022-12-15T09:45:26;99798.44;;;-2.34;100.00
41898;BME280;27576;53.366;-1.498;2022-12-15T09:47:57;99782.09;;;-2.39;100.00
41898;BME280;27576;53.366;-1.498;2022-12-15T09:50:27;99738.78;;;-2.59;100.00
41898;BME280;27576;53.366;-1.498;2022-12-15T09:52:57;99795.56;;;-2.24;100.00
41898;BME280;27576;53.366;-1.498;2022-12-15T09:55:30;99794.09;;;-2.20;100.00
41898;BME280;27576;53.366;-1.498;2022-12-15T10:00:24;99803.94;;;-2.10;100.00
41898;BME280;27576;53.366;-1.498;2022-12-15T10:03:14;99782.44;;;-2.17;100.00
41898;BME280;27576;53.366;-1.498;2022-12-15T10:08:32;99786.88;;;-2.13;100.00
41898;BME280;27576;53.366;-1.498;2022-12-15T10:11:00;99782.78;;;-2.11;100.00
41898;BME280;27576;53.366;-1.498;2022-12-15T10:13:41;99804.19;;;-1.89;100.00
41898;BME280;27576;53.366;-1.498;2022-12-15T10:16:20;99790.72;;;-1.88;100.00
41898;BME280;27576;53.366;-1.498;2022-12-15T10:19:01;99802.06;;;-1.82;100.00
41898;BME280;27576;53.366;-1.498;2022-12-15T10:21:31;99783.00;;;-1.90;100.00
41898;BME280;27576;53.366;-1.498;2022-12-15T10:24:08;99794.44;;;-1.82;100.00
41898;BME280;27576;53.366;-1.498;2022-12-15T10:26:37;99771.81;;;-1.93;100.00
41898;BME280;27576;53.366;-1.498;2022-12-15T10:31:51;99804.34;;;-1.70;100.00
41898;BME280;27576;53.366;-1.498;2022-12-15T10:34:27;99794.44;;;-1.65;100.00
41898;BME280;27576;53.366;-1.498;2022-12-15T10:36:54;99797.94;;;-1.63;100.00
41898;BME280;27576;53.366;-1.498;2022-12-15T10:39:20;99785.00;;;-1.68;100.00
41898;BME280;27576;53.366;-1.498;2022-12-15T10:42:19;99796.59;;;-1.57;100.00
41898;BME280;27576;53.366;-1.498;2022-12-15T10:44:48;99805.53;;;-1.47;100.00
41898;BME280;27576;53.366;-1.498;2022-12-15T10:47:19;99807.28;;;-1.46;100.00
41898;BME280;27576;53.366;-1.498;2022-12-15T10:49:45;99799.00;;;-1.42;100.00
41898;BME280;27576;53.366;-1.498;2022-12-15T10:52:34;99797.44;;;-1.40;100.00
41898;BME280;27576;53.366;-1.498;2022-12-15T10:55:00;99777.53;;;-1.49;100.00
41898;BME280;27576;53.366;-1.498;2022-12-15T10:57:28;99808.00;;;-1.32;100.00
41898;BME280;27576;53.366;-1.498;2022-12-15T11:00:18;99779.50;;;-1.43;100.00
41898;BME280;27576;53.366;-1.498;2022-12-15T11:02:43;99784.81;;;-1.38;100.00
41898;BME280;27576;53.366;-1.498;2022-12-15T11:07:45;99802.00;;;-1.16;100.00
41898;BME280;27576;53.366;-1.498;2022-12-15T11:10:31;99803.75;;;-1.15;100.00
41898;BME280;27576;53.366;-1.498;2022-12-15T11:13:23;99803.59;;;-1.18;100.00
41898;BME280;27576;53.366;-1.498;2022-12-15T11:15:50;99804.06;;;-1.09;100.00
41898;BME280;27576;53.366;-1.498;2022-12-15T11:18:59;99808.78;;;-0.99;100.00
41898;BME280;27576;53.366;-1.498;2022-12-15T11:21:29;99811.47;;;-0.96;100.00
41898;BME280;27576;53.366;-1.498;2022-12-15T11:24:24;99792.81;;;-0.96;100.00
41898;BME280;27576;53.366;-1.498;2022-12-15T11:30:01;99816.13;;;-0.87;100.00
41898;BME280;27576;53.366;-1.498;2022-12-15T11:32:33;99802.06;;;-0.81;100.00
41898;BME280;27576;53.366;-1.498;2022-12-15T11:34:59;99787.72;;;-0.96;100.00
41898;BME280;27576;53.366;-1.498;2022-12-15T11:54:17;99808.16;;;-0.59;100.00
41898;BME280;27576;53.366;-1.498;2022-12-15T12:00:01;99829.22;;;-0.44;100.00
41898;BME280;27576;53.366;-1.498;2022-12-15T12:05:30;99841.44;;;-0.37;100.00
41898;BME280;27576;53.366;-1.498;2022-12-15T12:18:30;99785.19;;;-0.43;100.00
41898;BME280;27576;53.366;-1.498;2022-12-15T12:21:05;99769.56;;;-0.51;100.00
41898;BME280;27576;53.366;-1.498;2022-12-15T12:23:39;99817.00;;;-0.15;100.00
41898;BME280;27576;53.366;-1.498;2022-12-15T12:26:18;99780.31;;;-0.38;100.00
41898;BME280;27576;53.366;-1.498;2022-12-15T12:31:39;99817.38;;;-0.08;100.00
41898;BME280;27576;53.366;-1.498;2022-12-15T12:34:14;99780.16;;;-0.23;100.00
41898;BME280;27576;53.366;-1.498;2022-12-15T12:36:42;99808.91;;;-0.07;100.00
41898;BME280;27576;53.366;-1.498;2022-12-15T12:39:17;99817.25;;;0.09;100.00
41898;BME280;27576;53.366;-1.498;2022-12-15T12:41:54;99821.72;;;0.14;100.00
41898;BME280;27576;53.366;-1.498;2022-12-15T12:44:32;99826.34;;;0.23;100.00
41898;BME280;27576;53.366;-1.498;2022-12-15T12:47:16;99809.47;;;0.25;100.00
41898;BME280;27576;53.366;-1.498;2022-12-15T12:49:56;99769.22;;;0.57;100.00
41898;BME280;27576;53.366;-1.498;2022-12-15T12:52:31;99780.50;;;1.90;100.00
41898;BME280;27576;53.366;-1.498;2022-12-15T12:55:18;99821.44;;;3.39;100.00
41898;BME280;27576;53.366;-1.498;2022-12-15T12:57:45;99815.91;;;4.71;100.00
41898;BME280;27576;53.366;-1.498;2022-12-15T13:00:26;99800.78;;;5.89;100.00
41898;BME280;27576;53.366;-1.498;2022-12-15T13:02:53;99813.78;;;6.78;99.71
41898;BME280;27576;53.366;-1.498;2022-12-15T13:05:28;99779.88;;;7.02;89.02
41898;BME280;27576;53.366;-1.498;2022-12-15T13:10:31;99783.03;;;6.87;86.89
41898;BME280;27576;53.366;-1.498;2022-12-15T13:12:58;99803.97;;;6.57;85.36
41898;BME280;27576;53.366;-1.498;2022-12-15T13:15:42;99800.06;;;5.93;82.49
41898;BME280;27576;53.366;-1.498;2022-12-15T13:18:20;99777.75;;;5.18;83.43
41898;BME280;27576;53.366;-1.498;2022-12-15T13:20:54;99787.03;;;4.78;86.32
41898;BME280;27576;53.366;-1.498;2022-12-15T13:46:53;99800.47;;;2.01;99.86
41898;BME280;27576;53.366;-1.498;2022-12-15T13:49:33;99821.59;;;1.96;100.00
41898;BME280;27576;53.366;-1.498;2022-12-15T13:52:04;99828.41;;;1.74;100.00
41898;BME280;27576;53.366;-1.498;2022-12-15T13:54:38;99827.16;;;1.64;100.00
41898;BME280;27576;53.366;-1.498;2022-12-15T13:57:10;99836.94;;;1.53;100.00
41898;BME280;27576;53.366;-1.498;2022-12-15T13:59:46;99812.06;;;1.27;100.00
41898;BME280;27576;53.366;-1.498;2022-12-15T14:02:29;99841.16;;;1.30;100.00
41898;BME280;27576;53.366;-1.498;2022-12-15T14:07:42;99848.09;;;1.13;100.00
41898;BME280;27576;53.366;-1.498;2022-12-15T14:10:20;99841.88;;;1.07;100.00
41898;BME280;27576;53.366;-1.498;2022-12-15T14:12:48;99835.31;;;0.92;100.00
41898;BME280;27576;53.366;-1.498;2022-12-15T14:15:15;99845.72;;;0.97;100.00
41898;BME280;27576;53.366;-1.498;2022-12-15T14:17:49;99841.97;;;0.89;100.00
41898;BME280;27576;53.366;-1.498;2022-12-15T14:20:19;99830.91;;;0.88;100.00
41898;BME280;27576;53.366;-1.498;2022-12-15T14:22:46;99840.16;;;0.86;100.00
41898;BME280;27576;53.366;-1.498;2022-12-15T14:25:27;99802.50;;;0.60;100.00
41898;BME280;27576;53.366;-1.498;2022-12-15T14:27:54;99835.47;;;0.76;100.00
41898;BME280;27576;53.366;-1.498;2022-12-15T14:32:52;99815.06;;;0.55;100.00
41898;BME280;27576;53.366;-1.498;2022-12-15T14:35:35;99840.84;;;0.63;100.00
41898;BME280;27576;53.366;-1.498;2022-12-15T14:38:06;99829.34;;;0.52;100.00
41898;BME280;27576;53.366;-1.498;2022-12-15T14:40:34;99855.59;;;0.70;100.00
41898;BME280;27576;53.366;-1.498;2022-12-15T14:43:01;99857.25;;;0.68;100.00
41898;BME280;27576;53.366;-1.498;2022-12-15T14:45:30;99829.19;;;0.48;100.00
41898;BME280;27576;53.366;-1.498;2022-12-15T14:47:59;99832.47;;;0.46;100.00
41898;BME280;27576;53.366;-1.498;2022-12-15T14:50:26;99785.41;;;0.18;100.00
41898;BME280;27576;53.366;-1.498;2022-12-15T14:52:54;99854.22;;;0.57;100.00